Strona główna
METAR-TAF:

METAR-TAF

Lotnisko :

Cranwell, Anglia

Szerokość geograficzna: 53-02N, Długość geograficzna: 000-30W, wysokość: 67 m

Aktualna obserwacja pogody

Raport powstał 44 minut temu, godzina 04:50 UTC
Wiatr 28 kt od zachodnio-południowy zachód
Temperatura 5°C
Wilgotność 75%
Ciśnienie 1000 hPa
Widzialność 10 km lub więcej

METAR: EGYD 170450Z AUTO 24028KT 9999 // FEW043/// 05/01 Q1000

czas: 05:34 (05:34 UTC)


TAF: brakujący

Obserwacja i prognoza pogody dla ponad 4000 lotnisk (raport METAR i TAF).

Dostępne stacje oznaczono żółtymi i czerwonymi punktami na mapie.

Najedź kursorem aby zobaczyć nazwę stacji.

Kliknij aby zobaczyć obserwacje i prognozy pogody.

Aby zmienić mapę: kliknij na zielony przycisk z czarnym krzyżykiem, aby powiększyć; na zielony przycisk z myślnikiem, aby pomniejszyć; na zielone strzałki, aby przejść do map sąsiednich.


METAR-TAF: